sensor_id;sensor_type;location;lat;lon;timestamp;P1;durP1;ratioP1;P2;durP2;ratioP2
22359;SDS011;11347;52.030;4.690;2022-12-07T00:01:10;4.13;;;1.50;;
22359;SDS011;11347;52.030;4.690;2022-12-07T00:03:40;3.77;;;1.57;;
22359;SDS011;11347;52.030;4.690;2022-12-07T00:06:08;2.70;;;1.57;;
22359;SDS011;11347;52.030;4.690;2022-12-07T00:08:35;4.17;;;1.60;;
22359;SDS011;11347;52.030;4.690;2022-12-07T00:11:02;3.70;;;1.53;;
22359;SDS011;11347;52.030;4.690;2022-12-07T00:13:28;4.10;;;2.07;;
22359;SDS011;11347;52.030;4.690;2022-12-07T00:15:59;3.60;;;1.50;;
22359;SDS011;11347;52.030;4.690;2022-12-07T00:18:32;4.80;;;1.57;;
22359;SDS011;11347;52.030;4.690;2022-12-07T00:20:59;4.73;;;1.77;;
22359;SDS011;11347;52.030;4.690;2022-12-07T00:23:26;3.83;;;1.50;;
22359;SDS011;11347;52.030;4.690;2022-12-07T00:25:51;3.93;;;1.30;;
22359;SDS011;11347;52.030;4.690;2022-12-07T00:28:17;3.13;;;1.17;;
22359;SDS011;11347;52.030;4.690;2022-12-07T00:30:42;2.43;;;1.43;;
22359;SDS011;11347;52.030;4.690;2022-12-07T00:33:08;3.07;;;1.30;;
22359;SDS011;11347;52.030;4.690;2022-12-07T00:35:33;3.50;;;1.17;;
22359;SDS011;11347;52.030;4.690;2022-12-07T00:37:59;3.03;;;1.20;;
22359;SDS011;11347;52.030;4.690;2022-12-07T00:40:24;3.17;;;1.20;;
22359;SDS011;11347;52.030;4.690;2022-12-07T00:42:50;3.40;;;1.10;;
22359;SDS011;11347;52.030;4.690;2022-12-07T00:45:15;3.93;;;1.07;;
22359;SDS011;11347;52.030;4.690;2022-12-07T00:47:41;5.23;;;1.30;;
22359;SDS011;11347;52.030;4.690;2022-12-07T00:50:06;2.73;;;1.03;;
22359;SDS011;11347;52.030;4.690;2022-12-07T00:52:32;3.67;;;1.30;;
22359;SDS011;11347;52.030;4.690;2022-12-07T00:54:58;3.70;;;1.30;;
22359;SDS011;11347;52.030;4.690;2022-12-07T00:57:23;2.37;;;1.00;;
22359;SDS011;11347;52.030;4.690;2022-12-07T00:59:49;3.23;;;1.10;;
22359;SDS011;11347;52.030;4.690;2022-12-07T01:02:14;5.80;;;1.00;;
22359;SDS011;11347;52.030;4.690;2022-12-07T01:04:40;5.73;;;1.20;;
22359;SDS011;11347;52.030;4.690;2022-12-07T01:07:05;7.27;;;1.50;;
22359;SDS011;11347;52.030;4.690;2022-12-07T01:09:31;6.13;;;1.20;;
22359;SDS011;11347;52.030;4.690;2022-12-07T01:11:57;5.60;;;1.10;;
22359;SDS011;11347;52.030;4.690;2022-12-07T01:14:23;2.47;;;1.00;;
22359;SDS011;11347;52.030;4.690;2022-12-07T01:16:48;3.00;;;1.10;;
22359;SDS011;11347;52.030;4.690;2022-12-07T01:19:14;3.20;;;1.00;;
22359;SDS011;11347;52.030;4.690;2022-12-07T01:21:39;4.13;;;1.10;;
22359;SDS011;11347;52.030;4.690;2022-12-07T01:24:06;5.23;;;1.63;;
22359;SDS011;11347;52.030;4.690;2022-12-07T01:26:34;3.83;;;0.90;;
22359;SDS011;11347;52.030;4.690;2022-12-07T01:28:59;3.93;;;1.10;;
22359;SDS011;11347;52.030;4.690;2022-12-07T01:31:26;5.23;;;0.90;;
22359;SDS011;11347;52.030;4.690;2022-12-07T01:33:54;3.00;;;0.90;;
22359;SDS011;11347;52.030;4.690;2022-12-07T01:38:51;2.83;;;0.97;;
22359;SDS011;11347;52.030;4.690;2022-12-07T01:41:21;2.53;;;1.00;;
22359;SDS011;11347;52.030;4.690;2022-12-07T01:46:42;3.90;;;0.97;;
22359;SDS011;11347;52.030;4.690;2022-12-07T01:49:10;3.43;;;0.83;;
22359;SDS011;11347;52.030;4.690;2022-12-07T01:51:40;5.90;;;1.00;;
22359;SDS011;11347;52.030;4.690;2022-12-07T01:54:07;2.00;;;0.70;;
22359;SDS011;11347;52.030;4.690;2022-12-07T01:56:35;2.87;;;0.70;;
22359;SDS011;11347;52.030;4.690;2022-12-07T01:59:02;4.13;;;0.90;;
22359;SDS011;11347;52.030;4.690;2022-12-07T02:01:27;2.87;;;0.70;;
22359;SDS011;11347;52.030;4.690;2022-12-07T02:03:53;2.77;;;0.77;;
22359;SDS011;11347;52.030;4.690;2022-12-07T02:06:20;2.47;;;0.80;;
22359;SDS011;11347;52.030;4.690;2022-12-07T02:08:49;1.80;;;0.80;;
22359;SDS011;11347;52.030;4.690;2022-12-07T02:11:15;2.07;;;0.83;;
22359;SDS011;11347;52.030;4.690;2022-12-07T02:13:42;3.07;;;1.00;;
22359;SDS011;11347;52.030;4.690;2022-12-07T02:21:20;3.30;;;0.90;;
22359;SDS011;11347;52.030;4.690;2022-12-07T02:24:18;1.87;;;0.70;;
22359;SDS011;11347;52.030;4.690;2022-12-07T02:29:25;3.10;;;0.77;;
22359;SDS011;11347;52.030;4.690;2022-12-07T02:32:03;2.03;;;0.83;;
22359;SDS011;11347;52.030;4.690;2022-12-07T02:34:55;5.50;;;0.93;;
22359;SDS011;11347;52.030;4.690;2022-12-07T02:37:48;3.30;;;0.80;;
22359;SDS011;11347;52.030;4.690;2022-12-07T02:40:31;2.97;;;0.73;;
22359;SDS011;11347;52.030;4.690;2022-12-07T02:45:48;3.13;;;0.63;;
22359;SDS011;11347;52.030;4.690;2022-12-07T02:48:16;2.10;;;0.70;;
22359;SDS011;11347;52.030;4.690;2022-12-07T02:50:49;3.27;;;0.70;;
22359;SDS011;11347;52.030;4.690;2022-12-07T02:53:29;2.90;;;0.70;;
22359;SDS011;11347;52.030;4.690;2022-12-07T02:55:56;3.20;;;0.70;;
22359;SDS011;11347;52.030;4.690;2022-12-07T02:58:28;5.33;;;0.70;;
22359;SDS011;11347;52.030;4.690;2022-12-07T03:01:08;3.20;;;0.77;;
22359;SDS011;11347;52.030;4.690;2022-12-07T03:03:39;3.27;;;0.80;;
22359;SDS011;11347;52.030;4.690;2022-12-07T03:06:22;4.13;;;0.87;;
22359;SDS011;11347;52.030;4.690;2022-12-07T03:11:46;3.03;;;0.70;;
22359;SDS011;11347;52.030;4.690;2022-12-07T03:14:22;3.47;;;0.90;;
22359;SDS011;11347;52.030;4.690;2022-12-07T03:17:07;1.63;;;0.60;;
22359;SDS011;11347;52.030;4.690;2022-12-07T03:19:39;2.70;;;0.60;;
22359;SDS011;11347;52.030;4.690;2022-12-07T03:22:07;2.23;;;0.67;;
22359;SDS011;11347;52.030;4.690;2022-12-07T03:24:37;2.30;;;0.70;;
22359;SDS011;11347;52.030;4.690;2022-12-07T03:27:11;2.27;;;0.57;;
22359;SDS011;11347;52.030;4.690;2022-12-07T03:29:54;2.53;;;0.60;;
22359;SDS011;11347;52.030;4.690;2022-12-07T03:32:24;4.10;;;0.70;;
22359;SDS011;11347;52.030;4.690;2022-12-07T03:35:00;2.73;;;0.57;;
22359;SDS011;11347;52.030;4.690;2022-12-07T03:37:38;3.83;;;0.80;;
22359;SDS011;11347;52.030;4.690;2022-12-07T03:40:16;3.27;;;0.70;;
22359;SDS011;11347;52.030;4.690;2022-12-07T03:42:47;3.03;;;0.60;;
22359;SDS011;11347;52.030;4.690;2022-12-07T03:45:14;2.07;;;0.60;;
22359;SDS011;11347;52.030;4.690;2022-12-07T03:47:53;1.67;;;0.60;;
22359;SDS011;11347;52.030;4.690;2022-12-07T03:50:28;3.40;;;0.70;;
22359;SDS011;11347;52.030;4.690;2022-12-07T03:53:09;2.93;;;0.70;;
22359;SDS011;11347;52.030;4.690;2022-12-07T03:55:39;2.20;;;0.57;;
22359;SDS011;11347;52.030;4.690;2022-12-07T03:58:12;3.20;;;0.70;;
22359;SDS011;11347;52.030;4.690;2022-12-07T04:00:42;3.73;;;0.60;;
22359;SDS011;11347;52.030;4.690;2022-12-07T04:03:08;3.63;;;0.60;;
22359;SDS011;11347;52.030;4.690;2022-12-07T04:05:34;2.53;;;0.60;;
22359;SDS011;11347;52.030;4.690;2022-12-07T04:08:00;2.23;;;0.50;;
22359;SDS011;11347;52.030;4.690;2022-12-07T04:10:25;2.97;;;0.50;;
22359;SDS011;11347;52.030;4.690;2022-12-07T04:12:51;3.37;;;0.80;;
22359;SDS011;11347;52.030;4.690;2022-12-07T04:15:16;2.37;;;0.70;;
22359;SDS011;11347;52.030;4.690;2022-12-07T04:17:42;2.27;;;0.67;;
22359;SDS011;11347;52.030;4.690;2022-12-07T04:20:08;1.57;;;0.50;;
22359;SDS011;11347;52.030;4.690;2022-12-07T04:22:34;1.57;;;0.60;;
22359;SDS011;11347;52.030;4.690;2022-12-07T04:25:00;1.67;;;0.60;;
22359;SDS011;11347;52.030;4.690;2022-12-07T04:27:25;1.87;;;0.50;;
22359;SDS011;11347;52.030;4.690;2022-12-07T04:29:51;4.40;;;0.50;;
22359;SDS011;11347;52.030;4.690;2022-12-07T04:32:17;2.83;;;0.60;;
22359;SDS011;11347;52.030;4.690;2022-12-07T04:34:42;1.00;;;0.50;;
22359;SDS011;11347;52.030;4.690;2022-12-07T04:37:08;1.60;;;0.57;;
22359;SDS011;11347;52.030;4.690;2022-12-07T04:39:33;3.57;;;0.50;;
22359;SDS011;11347;52.030;4.690;2022-12-07T04:41:59;2.10;;;0.50;;
22359;SDS011;11347;52.030;4.690;2022-12-07T04:44:26;1.63;;;0.60;;
22359;SDS011;11347;52.030;4.690;2022-12-07T04:46:52;5.03;;;0.70;;
22359;SDS011;11347;52.030;4.690;2022-12-07T04:49:18;2.27;;;0.53;;
22359;SDS011;11347;52.030;4.690;2022-12-07T04:51:45;2.60;;;0.70;;
22359;SDS011;11347;52.030;4.690;2022-12-07T04:54:10;2.23;;;0.73;;
22359;SDS011;11347;52.030;4.690;2022-12-07T04:56:37;2.77;;;0.63;;
22359;SDS011;11347;52.030;4.690;2022-12-07T04:59:03;2.63;;;0.50;;
22359;SDS011;11347;52.030;4.690;2022-12-07T05:01:29;3.23;;;0.40;;
22359;SDS011;11347;52.030;4.690;2022-12-07T05:03:54;2.67;;;0.73;;
22359;SDS011;11347;52.030;4.690;2022-12-07T05:06:20;3.87;;;0.87;;
22359;SDS011;11347;52.030;4.690;2022-12-07T05:08:46;1.43;;;0.60;;
22359;SDS011;11347;52.030;4.690;2022-12-07T05:11:12;4.43;;;0.60;;
22359;SDS011;11347;52.030;4.690;2022-12-07T05:13:57;4.37;;;0.70;;
22359;SDS011;11347;52.030;4.690;2022-12-07T05:16:22;0.80;;;0.40;;
22359;SDS011;11347;52.030;4.690;2022-12-07T05:18:48;3.47;;;0.60;;
22359;SDS011;11347;52.030;4.690;2022-12-07T05:21:14;2.27;;;0.60;;
22359;SDS011;11347;52.030;4.690;2022-12-07T05:23:39;2.43;;;0.60;;
22359;SDS011;11347;52.030;4.690;2022-12-07T05:26:05;2.13;;;0.60;;
22359;SDS011;11347;52.030;4.690;2022-12-07T05:28:30;5.83;;;0.70;;
22359;SDS011;11347;52.030;4.690;2022-12-07T05:30:56;4.13;;;0.80;;
22359;SDS011;11347;52.030;4.690;2022-12-07T05:33:21;1.83;;;0.60;;
22359;SDS011;11347;52.030;4.690;2022-12-07T05:35:47;1.97;;;0.43;;
22359;SDS011;11347;52.030;4.690;2022-12-07T05:38:12;3.70;;;0.60;;
22359;SDS011;11347;52.030;4.690;2022-12-07T05:40:38;5.73;;;0.80;;
22359;SDS011;11347;52.030;4.690;2022-12-07T05:43:03;2.10;;;0.70;;
22359;SDS011;11347;52.030;4.690;2022-12-07T05:45:29;2.13;;;0.40;;
22359;SDS011;11347;52.030;4.690;2022-12-07T05:47:54;2.63;;;0.80;;
22359;SDS011;11347;52.030;4.690;2022-12-07T05:50:20;2.97;;;0.60;;
22359;SDS011;11347;52.030;4.690;2022-12-07T05:52:45;2.20;;;0.50;;
22359;SDS011;11347;52.030;4.690;2022-12-07T05:55:11;3.53;;;0.60;;
22359;SDS011;11347;52.030;4.690;2022-12-07T05:57:37;1.67;;;0.67;;
22359;SDS011;11347;52.030;4.690;2022-12-07T06:00:02;1.63;;;0.40;;
22359;SDS011;11347;52.030;4.690;2022-12-07T06:02:29;4.80;;;0.70;;
22359;SDS011;11347;52.030;4.690;2022-12-07T06:04:54;2.73;;;0.67;;
22359;SDS011;11347;52.030;4.690;2022-12-07T06:07:20;4.83;;;0.73;;
22359;SDS011;11347;52.030;4.690;2022-12-07T06:09:46;3.93;;;0.60;;
22359;SDS011;11347;52.030;4.690;2022-12-07T06:12:12;2.93;;;0.50;;
22359;SDS011;11347;52.030;4.690;2022-12-07T06:14:57;3.30;;;0.73;;
22359;SDS011;11347;52.030;4.690;2022-12-07T06:17:22;3.23;;;0.77;;
22359;SDS011;11347;52.030;4.690;2022-12-07T06:19:48;5.50;;;0.80;;
22359;SDS011;11347;52.030;4.690;2022-12-07T06:22:14;2.93;;;0.50;;
22359;SDS011;11347;52.030;4.690;2022-12-07T06:24:41;3.70;;;0.77;;
22359;SDS011;11347;52.030;4.690;2022-12-07T06:27:06;1.63;;;0.60;;
22359;SDS011;11347;52.030;4.690;2022-12-07T06:29:32;2.43;;;0.80;;
22359;SDS011;11347;52.030;4.690;2022-12-07T06:31:58;2.67;;;0.80;;
22359;SDS011;11347;52.030;4.690;2022-12-07T06:34:23;3.43;;;0.70;;
22359;SDS011;11347;52.030;4.690;2022-12-07T06:36:50;5.23;;;0.80;;
22359;SDS011;11347;52.030;4.690;2022-12-07T06:39:18;3.20;;;0.70;;
22359;SDS011;11347;52.030;4.690;2022-12-07T06:41:44;5.27;;;0.83;;
22359;SDS011;11347;52.030;4.690;2022-12-07T06:44:10;3.97;;;0.70;;
22359;SDS011;11347;52.030;4.690;2022-12-07T06:46:36;4.10;;;0.73;;
22359;SDS011;11347;52.030;4.690;2022-12-07T06:49:02;4.07;;;0.60;;
22359;SDS011;11347;52.030;4.690;2022-12-07T06:51:28;5.63;;;0.63;;
22359;SDS011;11347;52.030;4.690;2022-12-07T06:53:54;4.33;;;0.90;;
22359;SDS011;11347;52.030;4.690;2022-12-07T06:56:20;1.63;;;0.80;;
22359;SDS011;11347;52.030;4.690;2022-12-07T06:58:46;3.33;;;0.83;;
22359;SDS011;11347;52.030;4.690;2022-12-07T07:01:12;2.47;;;0.73;;
22359;SDS011;11347;52.030;4.690;2022-12-07T07:03:38;3.43;;;0.80;;
22359;SDS011;11347;52.030;4.690;2022-12-07T07:06:05;4.13;;;0.73;;
22359;SDS011;11347;52.030;4.690;2022-12-07T07:08:32;4.57;;;1.10;;
22359;SDS011;11347;52.030;4.690;2022-12-07T07:10:58;5.83;;;1.10;;
22359;SDS011;11347;52.030;4.690;2022-12-07T07:13:24;2.13;;;0.50;;
22359;SDS011;11347;52.030;4.690;2022-12-07T07:15:49;3.40;;;0.80;;
22359;SDS011;11347;52.030;4.690;2022-12-07T07:18:15;2.80;;;0.80;;
22359;SDS011;11347;52.030;4.690;2022-12-07T07:20:40;2.83;;;0.70;;
22359;SDS011;11347;52.030;4.690;2022-12-07T07:23:06;3.33;;;0.83;;
22359;SDS011;11347;52.030;4.690;2022-12-07T07:25:32;5.07;;;1.00;;
22359;SDS011;11347;52.030;4.690;2022-12-07T07:27:58;3.87;;;0.80;;
22359;SDS011;11347;52.030;4.690;2022-12-07T07:30:24;3.37;;;0.77;;
22359;SDS011;11347;52.030;4.690;2022-12-07T07:32:50;2.70;;;0.70;;
22359;SDS011;11347;52.030;4.690;2022-12-07T07:35:15;4.30;;;0.80;;
22359;SDS011;11347;52.030;4.690;2022-12-07T07:37:41;3.13;;;0.90;;
22359;SDS011;11347;52.030;4.690;2022-12-07T07:40:07;3.90;;;0.97;;
22359;SDS011;11347;52.030;4.690;2022-12-07T07:42:34;1.60;;;0.70;;
22359;SDS011;11347;52.030;4.690;2022-12-07T07:44:59;5.23;;;0.90;;
22359;SDS011;11347;52.030;4.690;2022-12-07T07:47:25;2.57;;;0.93;;
22359;SDS011;11347;52.030;4.690;2022-12-07T07:49:51;3.27;;;0.80;;
22359;SDS011;11347;52.030;4.690;2022-12-07T07:52:16;4.30;;;1.00;;
22359;SDS011;11347;52.030;4.690;2022-12-07T07:54:42;4.53;;;0.67;;
22359;SDS011;11347;52.030;4.690;2022-12-07T07:57:07;3.87;;;1.03;;
22359;SDS011;11347;52.030;4.690;2022-12-07T07:59:33;3.93;;;0.80;;
22359;SDS011;11347;52.030;4.690;2022-12-07T08:01:58;6.73;;;1.20;;
22359;SDS011;11347;52.030;4.690;2022-12-07T08:04:24;2.93;;;0.90;;
22359;SDS011;11347;52.030;4.690;2022-12-07T08:06:50;6.47;;;1.00;;
22359;SDS011;11347;52.030;4.690;2022-12-07T08:09:15;5.37;;;1.20;;
22359;SDS011;11347;52.030;4.690;2022-12-07T08:11:41;4.73;;;0.80;;
22359;SDS011;11347;52.030;4.690;2022-12-07T08:14:06;3.60;;;1.20;;
22359;SDS011;11347;52.030;4.690;2022-12-07T08:16:32;2.63;;;1.00;;
22359;SDS011;11347;52.030;4.690;2022-12-07T08:18:57;5.77;;;1.07;;
22359;SDS011;11347;52.030;4.690;2022-12-07T08:21:23;4.97;;;0.90;;
22359;SDS011;11347;52.030;4.690;2022-12-07T08:23:48;7.37;;;1.10;;
22359;SDS011;11347;52.030;4.690;2022-12-07T08:26:15;4.73;;;0.90;;
22359;SDS011;11347;52.030;4.690;2022-12-07T08:28:41;4.33;;;1.00;;
22359;SDS011;11347;52.030;4.690;2022-12-07T08:31:09;4.50;;;1.00;;
22359;SDS011;11347;52.030;4.690;2022-12-07T08:33:40;3.43;;;1.00;;
22359;SDS011;11347;52.030;4.690;2022-12-07T08:36:07;4.93;;;1.10;;
22359;SDS011;11347;52.030;4.690;2022-12-07T08:38:35;2.67;;;1.07;;
22359;SDS011;11347;52.030;4.690;2022-12-07T08:41:01;4.73;;;1.10;;
22359;SDS011;11347;52.030;4.690;2022-12-07T08:43:27;3.60;;;1.10;;
22359;SDS011;11347;52.030;4.690;2022-12-07T08:46:36;3.60;;;0.97;;
22359;SDS011;11347;52.030;4.690;2022-12-07T08:48:58;3.10;;;1.20;;
22359;SDS011;11347;52.030;4.690;2022-12-07T08:51:32;3.33;;;1.10;;
22359;SDS011;11347;52.030;4.690;2022-12-07T08:53:58;5.47;;;0.83;;
22359;SDS011;11347;52.030;4.690;2022-12-07T08:56:26;3.57;;;1.00;;
22359;SDS011;11347;52.030;4.690;2022-12-07T08:58:52;4.40;;;0.97;;
22359;SDS011;11347;52.030;4.690;2022-12-07T09:01:18;3.00;;;0.93;;
22359;SDS011;11347;52.030;4.690;2022-12-07T09:03:43;4.03;;;1.27;;
22359;SDS011;11347;52.030;4.690;2022-12-07T09:06:09;4.67;;;1.00;;
22359;SDS011;11347;52.030;4.690;2022-12-07T09:08:36;2.47;;;1.10;;
22359;SDS011;11347;52.030;4.690;2022-12-07T09:11:05;2.40;;;0.90;;
22359;SDS011;11347;52.030;4.690;2022-12-07T09:13:30;5.20;;;1.10;;
22359;SDS011;11347;52.030;4.690;2022-12-07T09:15:56;5.13;;;1.33;;
22359;SDS011;11347;52.030;4.690;2022-12-07T09:18:22;4.27;;;0.90;;
22359;SDS011;11347;52.030;4.690;2022-12-07T09:20:49;2.37;;;0.90;;
22359;SDS011;11347;52.030;4.690;2022-12-07T09:23:14;4.17;;;1.00;;
22359;SDS011;11347;52.030;4.690;2022-12-07T09:25:40;3.60;;;0.83;;
22359;SDS011;11347;52.030;4.690;2022-12-07T09:28:05;3.47;;;1.00;;
22359;SDS011;11347;52.030;4.690;2022-12-07T09:30:31;2.63;;;0.90;;
22359;SDS011;11347;52.030;4.690;2022-12-07T09:32:57;3.60;;;1.10;;
22359;SDS011;11347;52.030;4.690;2022-12-07T09:35:23;2.43;;;0.90;;
22359;SDS011;11347;52.030;4.690;2022-12-07T09:37:49;2.63;;;1.00;;
22359;SDS011;11347;52.030;4.690;2022-12-07T09:40:15;4.83;;;1.20;;
22359;SDS011;11347;52.030;4.690;2022-12-07T09:42:43;3.73;;;0.80;;
22359;SDS011;11347;52.030;4.690;2022-12-07T09:45:14;3.37;;;0.90;;
22359;SDS011;11347;52.030;4.690;2022-12-07T09:47:43;1.60;;;0.60;;
22359;SDS011;11347;52.030;4.690;2022-12-07T09:50:12;3.30;;;0.83;;
22359;SDS011;11347;52.030;4.690;2022-12-07T09:52:44;1.70;;;0.70;;
22359;SDS011;11347;52.030;4.690;2022-12-07T09:55:21;3.23;;;0.83;;
22359;SDS011;11347;52.030;4.690;2022-12-07T09:57:55;3.90;;;1.33;;
22359;SDS011;11347;52.030;4.690;2022-12-07T10:00:23;1.87;;;0.80;;
22359;SDS011;11347;52.030;4.690;2022-12-07T10:02:52;3.07;;;0.73;;
22359;SDS011;11347;52.030;4.690;2022-12-07T10:05:31;2.80;;;0.80;;
22359;SDS011;11347;52.030;4.690;2022-12-07T10:08:18;2.47;;;0.77;;
22359;SDS011;11347;52.030;4.690;2022-12-07T10:10:45;3.80;;;0.87;;
22359;SDS011;11347;52.030;4.690;2022-12-07T10:13:15;2.03;;;0.83;;
22359;SDS011;11347;52.030;4.690;2022-12-07T10:21:00;3.37;;;0.80;;
22359;SDS011;11347;52.030;4.690;2022-12-07T10:23:41;2.93;;;0.87;;
22359;SDS011;11347;52.030;4.690;2022-12-07T10:26:35;2.47;;;0.80;;
22359;SDS011;11347;52.030;4.690;2022-12-07T10:29:22;1.70;;;0.80;;
22359;SDS011;11347;52.030;4.690;2022-12-07T10:31:54;2.50;;;0.60;;
22359;SDS011;11347;52.030;4.690;2022-12-07T10:34:33;1.83;;;0.80;;
22359;SDS011;11347;52.030;4.690;2022-12-07T10:37:12;3.17;;;0.80;;
22359;SDS011;11347;52.030;4.690;2022-12-07T10:42:16;3.63;;;0.97;;
22359;SDS011;11347;52.030;4.690;2022-12-07T10:45:08;4.00;;;1.00;;
22359;SDS011;11347;52.030;4.690;2022-12-07T10:47:48;3.27;;;0.90;;
22359;SDS011;11347;52.030;4.690;2022-12-07T10:58:43;2.50;;;0.80;;
22359;SDS011;11347;52.030;4.690;2022-12-07T11:14:44;3.83;;;1.10;;
22359;SDS011;11347;52.030;4.690;2022-12-07T11:17:42;2.50;;;0.80;;
22359;SDS011;11347;52.030;4.690;2022-12-07T11:20:49;2.33;;;0.77;;
22359;SDS011;11347;52.030;4.690;2022-12-07T11:32:49;3.90;;;0.90;;
22359;SDS011;11347;52.030;4.690;2022-12-07T11:38:14;4.47;;;1.00;;
22359;SDS011;11347;52.030;4.690;2022-12-07T11:40:43;2.00;;;0.70;;
22359;SDS011;11347;52.030;4.690;2022-12-07T11:43:15;1.37;;;0.70;;
22359;SDS011;11347;52.030;4.690;2022-12-07T11:45:47;3.27;;;0.77;;
22359;SDS011;11347;52.030;4.690;2022-12-07T11:48:38;3.97;;;0.93;;
22359;SDS011;11347;52.030;4.690;2022-12-07T11:51:12;2.93;;;0.80;;
22359;SDS011;11347;52.030;4.690;2022-12-07T11:56:21;2.90;;;0.77;;
22359;SDS011;11347;52.030;4.690;2022-12-07T12:01:55;1.60;;;0.80;;
22359;SDS011;11347;52.030;4.690;2022-12-07T12:04:27;2.47;;;0.90;;
22359;SDS011;11347;52.030;4.690;2022-12-07T12:07:18;2.43;;;0.90;;
22359;SDS011;11347;52.030;4.690;2022-12-07T12:09:52;2.03;;;0.50;;
22359;SDS011;11347;52.030;4.690;2022-12-07T12:13:25;2.37;;;0.60;;
22359;SDS011;11347;52.030;4.690;2022-12-07T12:15:35;4.77;;;1.00;;
22359;SDS011;11347;52.030;4.690;2022-12-07T12:18:26;2.97;;;0.70;;
22359;SDS011;11347;52.030;4.690;2022-12-07T12:21:22;3.40;;;0.80;;
22359;SDS011;11347;52.030;4.690;2022-12-07T12:23:54;2.73;;;0.53;;
22359;SDS011;11347;52.030;4.690;2022-12-07T12:26:25;5.27;;;0.97;;
22359;SDS011;11347;52.030;4.690;2022-12-07T12:31:34;1.77;;;0.60;;
22359;SDS011;11347;52.030;4.690;2022-12-07T12:37:45;2.57;;;0.73;;
22359;SDS011;11347;52.030;4.690;2022-12-07T12:42:55;2.87;;;0.60;;
22359;SDS011;11347;52.030;4.690;2022-12-07T12:45:33;1.93;;;0.60;;
22359;SDS011;11347;52.030;4.690;2022-12-07T12:50:46;1.83;;;0.80;;
22359;SDS011;11347;52.030;4.690;2022-12-07T12:58:39;2.87;;;0.87;;
22359;SDS011;11347;52.030;4.690;2022-12-07T13:01:48;2.13;;;0.60;;
22359;SDS011;11347;52.030;4.690;2022-12-07T13:04:12;2.67;;;0.80;;
22359;SDS011;11347;52.030;4.690;2022-12-07T13:06:50;3.67;;;0.70;;
22359;SDS011;11347;52.030;4.690;2022-12-07T13:09:17;3.93;;;0.60;;
22359;SDS011;11347;52.030;4.690;2022-12-07T13:11:47;1.83;;;0.53;;
22359;SDS011;11347;52.030;4.690;2022-12-07T13:17:12;1.53;;;0.60;;
22359;SDS011;11347;52.030;4.690;2022-12-07T13:24:56;2.13;;;0.60;;
22359;SDS011;11347;52.030;4.690;2022-12-07T13:27:24;1.60;;;0.50;;
22359;SDS011;11347;52.030;4.690;2022-12-07T13:29:51;2.63;;;0.80;;
22359;SDS011;11347;52.030;4.690;2022-12-07T13:32:24;1.60;;;0.53;;
22359;SDS011;11347;52.030;4.690;2022-12-07T13:34:52;1.97;;;0.60;;
22359;SDS011;11347;52.030;4.690;2022-12-07T13:37:21;0.93;;;0.37;;
22359;SDS011;11347;52.030;4.690;2022-12-07T13:39:53;4.00;;;0.60;;
22359;SDS011;11347;52.030;4.690;2022-12-07T13:42:25;2.17;;;0.53;;
22359;SDS011;11347;52.030;4.690;2022-12-07T13:44:52;3.30;;;0.60;;
22359;SDS011;11347;52.030;4.690;2022-12-07T13:47:22;1.90;;;0.60;;
22359;SDS011;11347;52.030;4.690;2022-12-07T13:52:49;1.40;;;0.50;;
22359;SDS011;11347;52.030;4.690;2022-12-07T13:55:15;1.60;;;0.50;;
22359;SDS011;11347;52.030;4.690;2022-12-07T13:57:45;1.47;;;0.60;;
22359;SDS011;11347;52.030;4.690;2022-12-07T14:00:19;4.50;;;1.00;;
22359;SDS011;11347;52.030;4.690;2022-12-07T14:05:26;2.27;;;0.60;;
22359;SDS011;11347;52.030;4.690;2022-12-07T14:10:26;1.60;;;0.47;;
22359;SDS011;11347;52.030;4.690;2022-12-07T14:12:54;2.10;;;0.50;;
22359;SDS011;11347;52.030;4.690;2022-12-07T14:15:21;1.50;;;0.40;;
22359;SDS011;11347;52.030;4.690;2022-12-07T14:17:49;2.47;;;0.50;;
22359;SDS011;11347;52.030;4.690;2022-12-07T14:20:33;2.03;;;0.50;;
22359;SDS011;11347;52.030;4.690;2022-12-07T14:23:03;1.20;;;0.40;;
22359;SDS011;11347;52.030;4.690;2022-12-07T14:25:48;1.87;;;0.53;;
22359;SDS011;11347;52.030;4.690;2022-12-07T14:28:28;2.13;;;0.60;;
22359;SDS011;11347;52.030;4.690;2022-12-07T14:30:56;3.40;;;0.60;;
22359;SDS011;11347;52.030;4.690;2022-12-07T14:33:22;1.90;;;0.63;;
22359;SDS011;11347;52.030;4.690;2022-12-07T14:35:49;1.80;;;0.50;;
22359;SDS011;11347;52.030;4.690;2022-12-07T14:38:15;1.23;;;0.60;;
22359;SDS011;11347;52.030;4.690;2022-12-07T14:40:40;1.43;;;0.50;;
22359;SDS011;11347;52.030;4.690;2022-12-07T14:43:09;0.60;;;0.30;;
22359;SDS011;11347;52.030;4.690;2022-12-07T14:45:37;0.90;;;0.47;;
22359;SDS011;11347;52.030;4.690;2022-12-07T14:48:04;1.40;;;0.63;;
22359;SDS011;11347;52.030;4.690;2022-12-07T14:50:30;2.77;;;0.67;;
22359;SDS011;11347;52.030;4.690;2022-12-07T14:53:02;1.10;;;0.40;;
22359;SDS011;11347;52.030;4.690;2022-12-07T14:55:35;1.90;;;0.40;;
22359;SDS011;11347;52.030;4.690;2022-12-07T14:58:01;2.60;;;0.57;;
22359;SDS011;11347;52.030;4.690;2022-12-07T15:00:27;2.00;;;0.60;;
22359;SDS011;11347;52.030;4.690;2022-12-07T15:02:53;0.90;;;0.40;;
22359;SDS011;11347;52.030;4.690;2022-12-07T15:05:19;3.20;;;0.63;;
22359;SDS011;11347;52.030;4.690;2022-12-07T15:07:46;1.07;;;0.53;;
22359;SDS011;11347;52.030;4.690;2022-12-07T15:10:14;1.37;;;0.43;;
22359;SDS011;11347;52.030;4.690;2022-12-07T15:12:42;1.33;;;0.33;;
22359;SDS011;11347;52.030;4.690;2022-12-07T15:15:08;2.00;;;0.50;;
22359;SDS011;11347;52.030;4.690;2022-12-07T15:17:34;2.03;;;0.50;;
22359;SDS011;11347;52.030;4.690;2022-12-07T15:20:00;1.17;;;0.40;;
22359;SDS011;11347;52.030;4.690;2022-12-07T15:22:25;1.10;;;0.50;;
22359;SDS011;11347;52.030;4.690;2022-12-07T15:24:51;1.50;;;0.47;;
22359;SDS011;11347;52.030;4.690;2022-12-07T15:27:16;1.80;;;0.60;;
22359;SDS011;11347;52.030;4.690;2022-12-07T15:29:42;1.87;;;0.50;;
22359;SDS011;11347;52.030;4.690;2022-12-07T15:32:08;1.67;;;0.50;;
22359;SDS011;11347;52.030;4.690;2022-12-07T15:34:33;1.93;;;0.67;;
22359;SDS011;11347;52.030;4.690;2022-12-07T15:36:59;2.90;;;0.70;;
22359;SDS011;11347;52.030;4.690;2022-12-07T15:39:24;1.87;;;0.40;;
22359;SDS011;11347;52.030;4.690;2022-12-07T15:41:50;1.53;;;0.67;;
22359;SDS011;11347;52.030;4.690;2022-12-07T15:44:15;1.93;;;0.80;;
22359;SDS011;11347;52.030;4.690;2022-12-07T15:47:00;2.93;;;0.73;;
22359;SDS011;11347;52.030;4.690;2022-12-07T15:49:25;2.30;;;0.80;;
22359;SDS011;11347;52.030;4.690;2022-12-07T15:51:52;1.90;;;0.77;;
22359;SDS011;11347;52.030;4.690;2022-12-07T15:54:19;3.87;;;1.00;;
22359;SDS011;11347;52.030;4.690;2022-12-07T15:56:46;1.33;;;0.50;;
22359;SDS011;11347;52.030;4.690;2022-12-07T15:59:12;2.17;;;0.70;;
22359;SDS011;11347;52.030;4.690;2022-12-07T16:01:38;1.77;;;0.50;;
22359;SDS011;11347;52.030;4.690;2022-12-07T16:04:03;2.47;;;0.70;;
22359;SDS011;11347;52.030;4.690;2022-12-07T16:06:29;1.83;;;0.60;;
22359;SDS011;11347;52.030;4.690;2022-12-07T16:08:55;2.13;;;0.80;;
22359;SDS011;11347;52.030;4.690;2022-12-07T16:11:21;3.07;;;0.70;;
22359;SDS011;11347;52.030;4.690;2022-12-07T16:13:47;1.83;;;0.80;;
22359;SDS011;11347;52.030;4.690;2022-12-07T16:16:14;2.63;;;1.00;;
22359;SDS011;11347;52.030;4.690;2022-12-07T16:18:42;1.80;;;0.80;;
22359;SDS011;11347;52.030;4.690;2022-12-07T16:21:08;1.57;;;0.60;;
22359;SDS011;11347;52.030;4.690;2022-12-07T16:23:34;1.97;;;0.70;;
22359;SDS011;11347;52.030;4.690;2022-12-07T16:26:03;2.33;;;0.70;;
22359;SDS011;11347;52.030;4.690;2022-12-07T16:28:30;1.90;;;0.60;;
22359;SDS011;11347;52.030;4.690;2022-12-07T16:31:06;1.37;;;0.70;;
22359;SDS011;11347;52.030;4.690;2022-12-07T16:33:35;2.73;;;0.70;;
22359;SDS011;11347;52.030;4.690;2022-12-07T16:36:02;5.60;;;0.90;;
22359;SDS011;11347;52.030;4.690;2022-12-07T16:38:29;1.47;;;0.70;;
22359;SDS011;11347;52.030;4.690;2022-12-07T16:40:54;2.73;;;1.00;;